createdAt,value
2022-12-28T00:03:22.600Z,2.35
2022-12-28T00:08:23.302Z,2.28
2022-12-28T00:13:25.282Z,2.00
2022-12-28T00:18:26.161Z,2.10
2022-12-28T00:23:27.952Z,2.15
2022-12-28T00:28:29.997Z,2.25
2022-12-28T00:33:31.304Z,2.03
2022-12-28T00:38:32.941Z,1.95
2022-12-28T00:43:35.283Z,1.65
2022-12-28T00:48:35.946Z,1.77
2022-12-28T00:53:36.710Z,1.60
2022-12-28T00:58:39.172Z,1.67
2022-12-28T01:03:39.999Z,1.73
2022-12-28T01:08:41.761Z,2.63
2022-12-28T01:13:43.853Z,1.90
2022-12-28T01:18:45.681Z,1.75
2022-12-28T01:23:47.441Z,2.42
2022-12-28T01:28:49.504Z,2.70
2022-12-28T01:33:50.462Z,2.17
2022-12-28T01:38:54.466Z,1.80
2022-12-28T01:44:32.481Z,2.75
2022-12-28T01:49:38.255Z,2.25
2022-12-28T01:54:43.640Z,2.33
2022-12-28T01:59:51.524Z,3.03
2022-12-28T02:04:55.027Z,2.97
2022-12-28T02:10:44.692Z,2.45
2022-12-28T02:15:22.911Z,2.60
2022-12-28T02:20:32.717Z,3.30
2022-12-28T02:25:57.873Z,2.85
2022-12-28T02:31:07.152Z,3.40
2022-12-28T02:36:18.174Z,3.15
2022-12-28T02:41:22.413Z,3.60
2022-12-28T02:46:44.948Z,2.88
2022-12-28T02:52:00.101Z,3.03
2022-12-28T02:57:09.322Z,3.00
2022-12-28T03:02:26.103Z,3.25
2022-12-28T03:07:50.697Z,3.97
2022-12-28T03:12:57.856Z,3.70
2022-12-28T03:18:24.615Z,2.80
2022-12-28T03:23:45.032Z,3.08
2022-12-28T03:29:05.305Z,3.13
2022-12-28T03:34:11.982Z,3.60
2022-12-28T03:39:23.620Z,3.42
2022-12-28T03:44:32.938Z,2.70
2022-12-28T03:49:35.448Z,2.92
2022-12-28T03:54:36.768Z,2.97
2022-12-28T03:59:37.727Z,2.70
2022-12-28T04:04:41.308Z,3.13
2022-12-28T04:09:42.050Z,2.83
2022-12-28T04:14:44.702Z,2.80
2022-12-28T04:19:47.581Z,2.47
2022-12-28T04:24:48.839Z,3.03
2022-12-28T04:29:49.923Z,2.92
2022-12-28T04:34:54.591Z,2.58
2022-12-28T04:39:57.395Z,2.40
2022-12-28T04:44:58.292Z,2.67
2022-12-28T04:50:00.367Z,2.50
2022-12-28T04:55:01.077Z,2.65
2022-12-28T05:00:01.708Z,3.13
2022-12-28T05:05:03.890Z,3.33
2022-12-28T05:10:05.053Z,2.63
2022-12-28T05:15:07.154Z,2.20
2022-12-28T05:20:10.319Z,2.67
2022-12-28T05:25:11.043Z,3.72
2022-12-28T05:30:12.521Z,2.90
2022-12-28T05:35:14.533Z,3.20
2022-12-28T05:40:15.233Z,2.60
2022-12-28T05:45:15.974Z,2.53
2022-12-28T05:50:18.240Z,3.33
2022-12-28T05:55:19.150Z,2.92
2022-12-28T06:00:19.908Z,2.70
2022-12-28T06:05:21.894Z,2.63
2022-12-28T06:10:22.541Z,2.63
2022-12-28T06:15:23.173Z,2.50
2022-12-28T06:20:25.126Z,2.38
2022-12-28T06:25:25.776Z,2.20
2022-12-28T06:30:26.487Z,2.60
2022-12-28T06:35:28.474Z,2.55
2022-12-28T06:41:02.453Z,2.53
2022-12-28T06:45:57.357Z,2.38
2022-12-28T06:51:00.763Z,2.55
2022-12-28T06:56:03.675Z,2.17
2022-12-28T07:01:08.368Z,2.35
2022-12-28T07:06:11.376Z,2.05
2022-12-28T07:11:14.188Z,2.03
2022-12-28T07:16:17.413Z,2.10
2022-12-28T07:21:21.703Z,1.95
2022-12-28T07:26:24.826Z,1.60
2022-12-28T07:31:28.740Z,2.33
2022-12-28T07:36:32.389Z,2.15
2022-12-28T07:41:36.117Z,1.67
2022-12-28T07:46:39.352Z,1.92
2022-12-28T07:51:41.384Z,1.85
2022-12-28T08:01:41.763Z,2.10
2022-12-28T08:06:45.499Z,1.65
2022-12-28T08:11:46.954Z,1.80
2022-12-28T08:16:47.709Z,2.00
2022-12-28T08:21:49.896Z,1.80
2022-12-28T08:26:50.918Z,1.80
2022-12-28T08:31:51.742Z,1.80
2022-12-28T08:36:53.933Z,1.70
2022-12-28T08:41:54.607Z,2.22
2022-12-28T08:46:56.193Z,1.98
2022-12-28T08:51:59.168Z,1.80
2022-12-28T08:56:59.820Z,1.60
2022-12-28T09:02:00.580Z,1.98
2022-12-28T09:07:02.606Z,2.42
2022-12-28T09:12:03.275Z,1.52
2022-12-28T09:17:03.997Z,1.95
2022-12-28T09:22:06.139Z,2.13
2022-12-28T09:27:06.820Z,1.98
2022-12-28T09:32:07.491Z,1.80
2022-12-28T09:37:09.544Z,2.13
2022-12-28T09:42:18.444Z,2.10
2022-12-28T09:47:25.928Z,2.58
2022-12-28T09:52:31.205Z,2.30
2022-12-28T09:57:38.501Z,2.20
2022-12-28T10:02:41.455Z,2.53
2022-12-28T10:07:43.552Z,2.53
2022-12-28T10:12:45.302Z,2.40
2022-12-28T10:17:46.695Z,2.67
2022-12-28T10:22:51.928Z,3.60
2022-12-28T10:27:52.937Z,2.45
2022-12-28T10:33:02.149Z,2.63
2022-12-28T10:38:07.497Z,2.78
2022-12-28T10:43:19.318Z,2.55
2022-12-28T10:48:23.790Z,2.15
2022-12-28T10:53:29.342Z,3.00
2022-12-28T10:58:31.772Z,2.50
2022-12-28T11:03:36.871Z,2.70
2022-12-28T11:08:39.696Z,1.95
2022-12-28T11:13:41.175Z,2.10
2022-12-28T11:18:42.679Z,2.20
2022-12-28T11:23:45.402Z,2.13
2022-12-28T11:28:49.344Z,1.50
2022-12-28T11:33:56.846Z,2.30
2022-12-28T11:38:59.366Z,1.90
2022-12-28T11:44:01.590Z,2.28
2022-12-28T11:49:04.411Z,1.83
2022-12-28T11:54:39.563Z,1.88
2022-12-28T11:59:40.258Z,2.53
2022-12-28T12:04:43.343Z,2.00
2022-12-28T12:09:47.019Z,2.38
2022-12-28T12:14:50.769Z,2.38
2022-12-28T12:19:55.286Z,2.00
2022-12-28T12:25:03.246Z,2.33
2022-12-28T12:30:07.588Z,2.33
2022-12-28T12:35:13.367Z,2.40
2022-12-28T12:40:32.566Z,2.33
2022-12-28T12:45:41.997Z,2.20
2022-12-28T12:50:57.667Z,2.63
2022-12-28T12:56:07.933Z,2.67
2022-12-28T13:01:26.014Z,2.63
2022-12-28T13:06:30.788Z,3.25
2022-12-28T13:11:36.515Z,3.28
2022-12-28T13:16:37.571Z,3.35
2022-12-28T13:21:42.483Z,2.88
2022-12-28T13:26:44.541Z,3.20
2022-12-28T13:31:49.724Z,2.28
2022-12-28T13:36:53.758Z,2.95
2022-12-28T13:41:59.023Z,2.60
2022-12-28T13:47:04.959Z,2.75
2022-12-28T13:52:10.264Z,5.15
2022-12-28T13:57:45.384Z,2.00
2022-12-28T14:02:36.557Z,2.25
2022-12-28T14:07:38.066Z,1.10
2022-12-28T14:12:40.429Z,1.40
2022-12-28T14:17:42.003Z,1.15
2022-12-28T14:22:43.019Z,1.35
2022-12-28T14:27:56.992Z,1.00
2022-12-28T14:33:07.097Z,1.15
2022-12-28T14:38:19.228Z,1.58
2022-12-28T14:43:25.607Z,0.95
2022-12-28T14:48:34.631Z,1.15
2022-12-28T14:53:35.397Z,1.40
2022-12-28T14:58:50.792Z,1.45
2022-12-28T15:03:53.839Z,3.17
2022-12-28T15:08:56.251Z,3.55
2022-12-28T15:13:59.175Z,3.72
2022-12-28T15:18:59.839Z,3.33
2022-12-28T15:24:01.619Z,3.20
2022-12-28T15:29:06.447Z,3.50
2022-12-28T15:34:07.115Z,3.53
2022-12-28T15:39:07.789Z,3.13
2022-12-28T15:44:09.837Z,3.10
2022-12-28T15:49:13.006Z,4.63
2022-12-28T15:54:14.394Z,4.00
2022-12-28T15:59:16.427Z,3.95
2022-12-28T16:04:17.161Z,3.20
2022-12-28T16:09:17.868Z,3.80
2022-12-28T16:14:19.984Z,3.22
2022-12-28T16:19:21.070Z,3.05
2022-12-28T16:24:22.108Z,3.22
2022-12-28T16:29:26.380Z,3.80
2022-12-28T16:34:28.183Z,3.67
2022-12-28T16:39:30.509Z,3.95
2022-12-28T16:44:33.419Z,3.53
2022-12-28T16:49:34.410Z,3.50
2022-12-28T16:54:35.359Z,3.97
2022-12-28T16:59:37.373Z,3.75
2022-12-28T17:04:38.052Z,3.40
2022-12-28T17:09:41.976Z,3.33
2022-12-28T17:14:47.483Z,4.30
2022-12-28T17:19:48.152Z,2.95
2022-12-28T17:24:48.880Z,3.08
2022-12-28T17:29:51.011Z,3.70
2022-12-28T17:34:51.807Z,3.70
2022-12-28T17:39:52.540Z,3.60
2022-12-28T17:44:54.658Z,3.78
2022-12-28T17:49:55.470Z,3.53
2022-12-28T17:54:56.273Z,3.65
2022-12-28T17:59:58.648Z,3.10
2022-12-28T18:04:59.355Z,2.78
2022-12-28T18:10:00.084Z,3.17
2022-12-28T18:15:02.175Z,2.45
2022-12-28T18:20:02.946Z,2.75
2022-12-28T18:25:03.812Z,2.65
2022-12-28T18:30:06.783Z,2.50
2022-12-28T18:35:08.919Z,2.95
2022-12-28T18:40:11.206Z,3.30
2022-12-28T18:45:13.558Z,3.00
2022-12-28T18:50:15.624Z,2.58
2022-12-28T18:55:18.923Z,2.45
2022-12-28T19:00:21.164Z,2.40
2022-12-28T19:05:21.917Z,2.80
2022-12-28T19:10:22.668Z,2.70
2022-12-28T19:15:24.734Z,2.80
2022-12-28T19:20:25.836Z,2.40
2022-12-28T19:25:26.554Z,2.83
2022-12-28T19:30:28.627Z,3.10
2022-12-28T19:35:29.410Z,3.33
2022-12-28T19:40:30.164Z,3.65
2022-12-28T19:45:32.395Z,3.13
2022-12-28T19:50:33.116Z,3.03
2022-12-28T19:55:34.480Z,3.03
2022-12-28T20:00:37.366Z,3.05
2022-12-28T20:05:38.083Z,3.38
2022-12-28T20:10:38.819Z,2.80
2022-12-28T20:15:43.532Z,3.40
2022-12-28T20:21:17.441Z,2.65
2022-12-28T20:26:05.212Z,3.33
2022-12-28T20:31:08.743Z,2.90
2022-12-28T20:36:12.788Z,2.97
2022-12-28T20:41:31.907Z,3.10
2022-12-28T20:46:34.706Z,2.80
2022-12-28T20:51:35.706Z,2.97
2022-12-28T20:56:38.566Z,2.60
2022-12-28T21:01:41.814Z,2.50
2022-12-28T21:06:42.605Z,2.67
2022-12-28T21:11:43.332Z,3.00
2022-12-28T21:16:45.404Z,2.75
2022-12-28T21:21:48.379Z,3.10
2022-12-28T21:26:49.188Z,3.22
2022-12-28T21:31:51.681Z,3.80
2022-12-28T21:37:17.623Z,3.35
2022-12-28T21:42:18.413Z,2.97
2022-12-28T21:47:20.612Z,3.20
2022-12-28T21:52:21.511Z,3.45
2022-12-28T21:57:22.254Z,3.15
2022-12-28T22:02:42.188Z,3.40
2022-12-28T22:07:43.045Z,3.42
2022-12-28T22:12:43.786Z,4.22
2022-12-28T22:17:46.377Z,3.85
2022-12-28T22:22:47.064Z,3.17
2022-12-28T22:27:47.749Z,3.58
2022-12-28T22:32:49.760Z,3.05
2022-12-28T22:37:50.520Z,3.00
2022-12-28T22:42:51.667Z,2.20
2022-12-28T22:47:59.214Z,2.15
2022-12-28T22:52:59.923Z,2.17
2022-12-28T22:58:00.590Z,1.73
2022-12-28T23:03:02.679Z,2.10
2022-12-28T23:08:03.422Z,1.90
2022-12-28T23:13:04.540Z,1.85
2022-12-28T23:18:20.601Z,1.63
2022-12-28T23:23:38.718Z,1.73
2022-12-28T23:28:39.372Z,1.65
2022-12-28T23:33:41.398Z,1.42
2022-12-28T23:38:42.096Z,2.38
2022-12-28T23:43:42.806Z,2.00
2022-12-28T23:48:44.793Z,1.73
2022-12-28T23:53:45.709Z,1.50
2022-12-28T23:58:46.420Z,1.88
